Time;durP1;ratioP1;P1;durP2;ratioP2;P2;SDS_P1;SDS_P2;PMS_P1;PMS_P2;Temp;Humidity;BMP_temperature;BMP_pressure;BME280_temperature;BME280_humidity;BME280_pressure;Samples;Min_cycle;Max_cycle;Signal;HPM_P1;HPM_P2
2021/05/23 00:02:06;;;;;;;1.77;1.67;;;17.90;51.60;;;;;;4992407;28;20469;-45
2021/05/23 00:04:32;;;;;;;2.70;1.47;;;17.80;52.00;;;;;;4991759;28;20438;-46
2021/05/23 00:06:58;;;;;;;2.07;1.43;;;17.60;51.90;;;;;;4992274;28;20799;-46
2021/05/23 00:09:25;;;;;;;2.03;1.50;;;17.70;52.00;;;;;;4991521;28;20195;-47
2021/05/23 00:11:51;;;;;;;4.47;1.67;;;17.60;52.00;;;;;;4992503;28;20433;-47
2021/05/23 00:14:17;;;;;;;1.40;1.30;;;17.50;52.30;;;;;;4991731;28;20422;-45
2021/05/23 00:16:43;;;;;;;2.00;1.10;;;17.30;53.00;;;;;;4992200;28;20198;-46
2021/05/23 00:19:09;;;;;;;1.10;1.00;;;17.20;53.00;;;;;;5005357;28;20833;-47
2021/05/23 00:21:34;;;;;;;2.60;1.40;;;17.40;52.90;;;;;;5011550;28;20619;-50
2021/05/23 00:24:00;;;;;;;2.50;1.50;;;17.40;52.90;;;;;;5009992;28;20233;-46
2021/05/23 00:26:26;;;;;;;1.10;1.00;;;17.40;52.90;;;;;;5012969;28;20554;-46
2021/05/23 00:28:53;;;;;;;1.50;1.40;;;17.30;52.80;;;;;;5015608;28;20436;-47
2021/05/23 00:31:19;;;;;;;1.20;1.10;;;17.30;52.80;;;;;;5015413;28;20495;-46
2021/05/23 00:33:44;;;;;;;1.33;1.23;;;17.30;52.80;;;;;;5015282;28;20467;-47
2021/05/23 00:36:10;;;;;;;2.40;1.47;;;17.30;52.80;;;;;;5015895;28;20448;-46
2021/05/23 00:38:36;;;;;;;1.97;1.20;;;17.20;52.50;;;;;;5015234;28;20705;-46
2021/05/23 00:41:02;;;;;;;2.93;1.30;;;17.30;52.60;;;;;;5007613;28;20201;-47
2021/05/23 00:43:28;;;;;;;3.30;1.10;;;17.20;52.40;;;;;;4995530;28;20682;-47
2021/05/23 00:45:54;;;;;;;1.43;1.33;;;17.40;52.60;;;;;;4996125;28;20428;-46
2021/05/23 00:48:21;;;;;;;1.57;1.00;;;17.50;52.50;;;;;;4993616;28;20206;-46
2021/05/23 00:50:48;;;;;;;2.17;1.60;;;17.50;52.30;;;;;;4995778;28;20673;-46
2021/05/23 00:53:14;;;;;;;3.97;1.53;;;17.60;52.30;;;;;;4995331;28;20426;-46
2021/05/23 00:55:40;;;;;;;1.30;1.20;;;17.70;52.30;;;;;;4995825;28;20441;-46
2021/05/23 00:58:07;;;;;;;2.30;1.30;;;17.70;52.00;;;;;;4995664;28;20766;-46
2021/05/23 01:00:35;;;;;;;2.30;1.20;;;17.60;51.80;;;;;;4995192;28;20441;-47
2021/05/23 01:03:01;;;;;;;2.17;1.30;;;17.60;51.80;;;;;;4994911;28;20481;-46
2021/05/23 01:05:28;;;;;;;1.47;1.20;;;17.60;51.80;;;;;;4995877;28;20575;-50
2021/05/23 01:07:54;;;;;;;1.40;1.20;;;17.60;51.70;;;;;;4994774;28;21100;-47
2021/05/23 01:10:22;;;;;;;2.07;1.37;;;17.70;51.30;;;;;;4995270;28;20471;-46
2021/05/23 01:12:54;;;;;;;2.80;1.30;;;17.70;51.10;;;;;;4995168;28;20780;-46
2021/05/23 01:15:35;;;;;;;3.90;1.00;;;17.60;51.00;;;;;;4993798;28;20452;-48
2021/05/23 01:18:04;;;;;;;1.17;1.10;;;17.70;51.00;;;;;;4999408;28;20818;-50
2021/05/23 01:20:43;;;;;;;1.63;0.90;;;17.70;50.80;;;;;;5014678;28;20425;-50
2021/05/23 01:23:24;;;;;;;1.60;1.20;;;17.70;50.50;;;;;;5014359;28;20480;-48
2021/05/23 01:25:54;;;;;;;0.90;0.90;;;17.50;50.70;;;;;;5015055;28;20526;-48
2021/05/23 01:28:20;;;;;;;1.90;1.10;;;17.50;51.10;;;;;;5014122;28;20524;-47
2021/05/23 01:30:48;;;;;;;1.37;1.00;;;17.50;50.90;;;;;;5014430;28;20461;-47
2021/05/23 01:33:16;;;;;;;1.30;1.10;;;17.50;51.10;;;;;;5014427;28;20656;-46
2021/05/23 01:35:46;;;;;;;5.00;1.13;;;17.40;51.10;;;;;;5014475;28;20436;-47
2021/05/23 01:38:15;;;;;;;1.33;1.23;;;17.40;51.20;;;;;;5011056;28;20469;-46
2021/05/23 01:40:42;;;;;;;1.00;1.00;;;17.30;51.20;;;;;;5012288;28;20448;-46
2021/05/23 01:43:09;;;;;;;1.43;1.20;;;17.30;51.30;;;;;;5012204;28;20853;-49
2021/05/23 01:45:35;;;;;;;2.20;1.43;;;17.40;51.40;;;;;;5014186;28;20429;-45
2021/05/23 01:48:03;;;;;;;1.10;1.00;;;17.40;51.60;;;;;;5013949;28;20456;-48
2021/05/23 01:50:29;;;;;;;2.10;1.40;;;17.50;51.90;;;;;;5014182;28;20433;-46
2021/05/23 01:53:05;;;;;;;1.10;1.00;;;17.50;52.00;;;;;;5014328;28;20453;-46
2021/05/23 01:55:31;;;;;;;1.90;1.40;;;17.50;51.90;;;;;;5014177;28;20186;-48
2021/05/23 01:57:58;;;;;;;1.17;1.10;;;17.50;52.00;;;;;;5014006;28;20436;-47
2021/05/23 02:00:39;;;;;;;3.50;1.27;;;17.60;52.40;;;;;;5013862;28;20421;-46
2021/05/23 02:03:07;;;;;;;1.30;1.20;;;17.60;52.50;;;;;;5013318;28;20495;-48
2021/05/23 02:05:35;;;;;;;2.40;1.10;;;17.60;52.40;;;;;;5014299;28;20429;-46
2021/05/23 02:08:02;;;;;;;1.57;1.20;;;17.60;52.70;;;;;;5011891;28;20765;-47
2021/05/23 02:10:28;;;;;;;1.57;1.30;;;17.70;52.90;;;;;;5013852;28;20820;-49
2021/05/23 02:12:55;;;;;;;1.43;1.27;;;17.70;52.80;;;;;;5013460;28;20432;-46
2021/05/23 02:15:21;;;;;;;7.13;1.50;;;17.60;52.60;;;;;;5014122;28;20778;-50
2021/05/23 02:17:47;;;;;;;2.70;1.10;;;17.60;52.80;;;;;;5013308;28;20436;-49
2021/05/23 02:20:20;;;;;;;1.60;0.93;;;17.60;52.80;;;;;;5013431;28;20270;-47
2021/05/23 02:22:47;;;;;;;1.40;1.10;;;17.60;52.80;;;;;;5013145;28;20845;-46
2021/05/23 02:25:16;;;;;;;1.20;1.10;;;17.60;53.10;;;;;;5013846;28;20428;-50
2021/05/23 02:27:50;;;;;;;0.90;0.80;;;17.60;52.80;;;;;;5013097;28;20437;-51
2021/05/23 02:30:19;;;;;;;3.03;1.20;;;17.60;52.70;;;;;;5013409;28;20432;-50
2021/05/23 02:32:46;;;;;;;1.67;1.30;;;17.60;52.40;;;;;;5012706;28;20940;-50
2021/05/23 02:35:13;;;;;;;1.40;1.20;;;17.50;52.40;;;;;;5012022;28;20900;-46
2021/05/23 02:37:39;;;;;;;3.33;1.20;;;17.50;52.40;;;;;;5012906;28;20492;-50
2021/05/23 02:40:11;;;;;;;1.00;0.90;;;17.40;52.60;;;;;;5013137;28;20918;-45
2021/05/23 02:42:38;;;;;;;3.17;1.20;;;17.20;52.60;;;;;;5005800;28;20493;-47
2021/05/23 02:45:08;;;;;;;3.83;1.90;;;17.10;53.60;;;;;;4993969;28;20848;-46
2021/05/23 02:47:34;;;;;;;1.60;0.70;;;16.90;54.50;;;;;;4993796;28;20430;-47
2021/05/23 02:50:01;;;;;;;0.70;0.60;;;16.10;56.20;;;;;;4992745;28;20465;-46
2021/05/23 02:52:26;;;;;;;1.53;0.80;;;15.60;57.90;;;;;;4993782;28;20504;-48
2021/05/23 02:54:52;;;;;;;3.13;0.87;;;15.40;58.20;;;;;;4992967;28;20434;-48
2021/05/23 02:57:18;;;;;;;2.70;1.20;;;15.50;59.00;;;;;;4993581;28;20206;-47
2021/05/23 02:59:43;;;;;;;0.63;0.63;;;15.60;59.00;;;;;;4992355;28;20233;-45
2021/05/23 03:02:11;;;;;;;1.30;0.73;;;15.90;58.70;;;;;;4992045;28;20241;-46
2021/05/23 03:04:36;;;;;;;1.07;0.50;;;16.10;58.00;;;;;;4993040;28;20199;-47
2021/05/23 03:07:02;;;;;;;4.30;0.90;;;16.30;57.70;;;;;;4993413;28;20480;-45
2021/05/23 03:09:28;;;;;;;1.20;0.70;;;16.40;57.60;;;;;;4992348;28;20237;-47
2021/05/23 03:11:54;;;;;;;2.97;0.80;;;16.40;57.30;;;;;;4993390;28;20461;-47
2021/05/23 03:14:20;;;;;;;1.63;1.23;;;16.40;57.30;;;;;;4992706;28;20246;-46
2021/05/23 03:16:45;;;;;;;1.33;0.70;;;16.40;57.30;;;;;;4993358;28;20257;-45
2021/05/23 03:19:11;;;;;;;1.07;0.80;;;16.40;57.50;;;;;;5006559;28;20562;-46
2021/05/23 03:21:37;;;;;;;1.00;0.73;;;16.30;57.60;;;;;;5012777;28;20186;-46
2021/05/23 03:24:03;;;;;;;0.63;0.53;;;16.30;57.80;;;;;;5012125;28;20228;-45
2021/05/23 03:26:29;;;;;;;2.20;0.70;;;16.30;57.90;;;;;;5013023;28;20741;-45
2021/05/23 03:28:55;;;;;;;1.70;0.70;;;16.30;57.40;;;;;;5010038;28;20421;-46
2021/05/23 03:31:21;;;;;;;1.10;0.67;;;16.30;57.20;;;;;;5012743;28;20971;-45
2021/05/23 03:33:46;;;;;;;1.43;0.80;;;16.40;57.20;;;;;;5011927;28;20196;-45
2021/05/23 03:36:12;;;;;;;1.73;0.70;;;16.40;56.40;;;;;;5012893;28;20269;-47
2021/05/23 03:38:37;;;;;;;1.27;0.70;;;16.30;56.00;;;;;;5006976;28;20276;-45
2021/05/23 03:41:03;;;;;;;0.70;0.70;;;16.30;56.20;;;;;;5012084;28;20193;-45
2021/05/23 03:43:29;;;;;;;2.30;0.70;;;16.40;56.10;;;;;;5011857;28;20225;-45
2021/05/23 03:45:54;;;;;;;0.60;0.60;;;16.40;56.00;;;;;;5012513;28;20194;-49
2021/05/23 03:48:20;;;;;;;0.73;0.60;;;16.50;56.00;;;;;;5011766;28;20235;-51
2021/05/23 03:50:46;;;;;;;0.80;0.60;;;16.50;55.90;;;;;;5011647;28;20201;-46
2021/05/23 03:53:11;;;;;;;0.60;0.60;;;16.50;55.80;;;;;;5011494;28;20224;-47
2021/05/23 03:55:37;;;;;;;0.90;0.80;;;16.50;55.70;;;;;;5010965;28;20190;-48
2021/05/23 03:58:03;;;;;;;2.20;1.00;;;16.50;56.00;;;;;;5011779;28;20200;-49
2021/05/23 04:00:29;;;;;;;1.20;0.73;;;16.50;56.20;;;;;;5011606;28;20688;-46
2021/05/23 04:02:56;;;;;;;0.80;0.60;;;16.50;56.30;;;;;;5011356;28;20492;-45
2021/05/23 04:05:23;;;;;;;0.80;0.80;;;16.40;56.10;;;;;;5012375;28;20209;-48
2021/05/23 04:07:50;;;;;;;0.70;0.70;;;16.40;56.50;;;;;;5011499;28;20449;-45
2021/05/23 04:10:19;;;;;;;3.00;0.90;;;16.40;57.00;;;;;;5011410;28;20519;-46
2021/05/23 04:12:47;;;;;;;0.70;0.60;;;16.40;57.10;;;;;;5011389;28;20797;-45
2021/05/23 04:15:15;;;;;;;0.80;0.67;;;16.40;57.30;;;;;;5011997;28;20433;-50
2021/05/23 04:17:41;;;;;;;0.83;0.83;;;16.40;57.20;;;;;;5011128;28;20452;-46
2021/05/23 04:20:10;;;;;;;1.63;0.87;;;16.40;57.30;;;;;;5009667;28;20453;-49
2021/05/23 04:22:36;;;;;;;0.80;0.70;;;16.30;57.10;;;;;;5011834;28;20222;-47
2021/05/23 04:25:03;;;;;;;0.83;0.70;;;16.30;57.30;;;;;;5011847;28;20447;-46
2021/05/23 04:27:28;;;;;;;0.70;0.60;;;16.30;57.20;;;;;;5011842;28;20468;-46
2021/05/23 04:29:54;;;;;;;1.47;0.70;;;16.20;57.00;;;;;;5010834;28;20452;-49
2021/05/23 04:32:20;;;;;;;0.90;0.60;;;16.20;57.10;;;;;;5011736;28;20220;-45
2021/05/23 04:34:45;;;;;;;1.33;0.70;;;16.30;57.00;;;;;;5011303;28;20212;-49
2021/05/23 04:37:11;;;;;;;0.80;0.80;;;16.30;57.30;;;;;;5011528;28;20232;-46
2021/05/23 04:39:37;;;;;;;1.70;0.50;;;16.40;57.40;;;;;;5010789;28;20225;-45
2021/05/23 04:42:02;;;;;;;2.00;0.90;;;16.40;57.40;;;;;;4995927;28;20603;-45
2021/05/23 04:44:28;;;;;;;0.93;0.70;;;16.40;57.50;;;;;;4991609;28;20203;-50
2021/05/23 04:46:54;;;;;;;6.67;0.80;;;16.50;57.40;;;;;;4990415;28;20232;-49
2021/05/23 04:49:19;;;;;;;1.10;0.90;;;16.50;57.30;;;;;;4991280;28;20572;-45
2021/05/23 04:51:45;;;;;;;0.90;0.60;;;16.50;56.90;;;;;;4992128;28;20606;-45
2021/05/23 04:54:11;;;;;;;0.80;0.70;;;16.50;56.90;;;;;;4991426;28;20207;-51
2021/05/23 04:56:37;;;;;;;0.70;0.63;;;16.50;56.80;;;;;;4991968;28;20198;-50
2021/05/23 04:59:03;;;;;;;0.70;0.50;;;16.50;56.70;;;;;;4991175;28;20209;-46
2021/05/23 05:01:28;;;;;;;0.60;0.50;;;16.50;56.70;;;;;;4992078;28;20509;-48
2021/05/23 05:03:54;;;;;;;1.27;0.87;;;16.50;56.70;;;;;;4991514;28;20361;-49
2021/05/23 05:06:20;;;;;;;0.70;0.70;;;16.50;56.60;;;;;;4991927;28;20246;-49
2021/05/23 05:08:46;;;;;;;0.60;0.60;;;16.50;56.60;;;;;;4990749;28;20195;-47
2021/05/23 05:11:12;;;;;;;0.90;0.70;;;16.50;56.80;;;;;;4991822;28;20195;-50
2021/05/23 05:13:38;;;;;;;4.33;0.70;;;16.50;56.60;;;;;;4990950;28;20858;-50
2021/05/23 05:16:04;;;;;;;3.40;0.60;;;16.40;56.70;;;;;;4995199;28;20429;-49
2021/05/23 05:18:30;;;;;;;0.60;0.57;;;16.40;56.80;;;;;;5003754;28;20194;-46
2021/05/23 05:20:56;;;;;;;3.97;0.93;;;16.50;57.10;;;;;;5015168;28;20425;-48
2021/05/23 05:23:21;;;;;;;0.73;0.60;;;16.50;57.00;;;;;;5014581;28;20491;-50
2021/05/23 05:25:47;;;;;;;0.90;0.70;;;16.50;57.10;;;;;;5014994;28;20508;-46
2021/05/23 05:28:13;;;;;;;1.00;0.73;;;16.60;57.00;;;;;;5014051;28;20198;-45
2021/05/23 05:30:38;;;;;;;1.27;0.80;;;16.70;57.20;;;;;;5014457;28;20202;-50
2021/05/23 05:33:04;;;;;;;0.80;0.80;;;16.60;57.30;;;;;;5014363;28;20185;-50
2021/05/23 05:35:30;;;;;;;1.80;1.00;;;16.70;57.50;;;;;;5014758;28;20194;-47
2021/05/23 05:37:56;;;;;;;0.80;0.80;;;16.70;57.70;;;;;;5013762;28;20475;-49
2021/05/23 05:40:22;;;;;;;1.83;1.03;;;16.80;58.30;;;;;;5010478;28;20281;-45
2021/05/23 05:42:47;;;;;;;1.20;0.70;;;16.80;58.10;;;;;;4994478;28;20637;-50
2021/05/23 05:45:13;;;;;;;1.90;0.80;;;16.70;58.10;;;;;;4994933;28;20430;-47
2021/05/23 05:47:39;;;;;;;1.00;0.60;;;16.70;57.60;;;;;;4994297;28;20199;-49
2021/05/23 05:50:05;;;;;;;1.27;0.97;;;16.70;56.60;;;;;;4994484;28;20525;-47
2021/05/23 05:52:31;;;;;;;3.07;0.83;;;16.60;56.50;;;;;;4995103;28;20202;-47
2021/05/23 05:54:57;;;;;;;0.60;0.50;;;16.70;56.40;;;;;;4994090;28;20438;-51
2021/05/23 05:57:22;;;;;;;1.63;1.00;;;16.70;56.60;;;;;;4994889;28;20248;-50
2021/05/23 05:59:48;;;;;;;2.73;1.00;;;16.70;56.90;;;;;;4993814;28;20195;-46
2021/05/23 06:02:15;;;;;;;1.97;0.77;;;16.60;56.90;;;;;;4994492;28;20249;-45
2021/05/23 06:04:40;;;;;;;0.60;0.60;;;16.60;57.20;;;;;;4993988;28;20567;-51
2021/05/23 06:07:06;;;;;;;2.30;0.83;;;16.60;57.50;;;;;;4992943;28;20422;-48
2021/05/23 06:09:31;;;;;;;1.87;0.70;;;16.60;57.80;;;;;;4995355;28;20285;-46
2021/05/23 06:11:57;;;;;;;1.50;0.70;;;16.70;58.00;;;;;;5005941;28;20202;-49
2021/05/23 06:14:23;;;;;;;1.23;0.80;;;16.70;57.60;;;;;;4993931;28;20269;-49
2021/05/23 06:16:48;;;;;;;1.90;1.03;;;16.40;57.20;;;;;;4994282;28;20230;-50
2021/05/23 06:19:14;;;;;;;0.87;0.80;;;16.50;57.50;;;;;;5008107;28;20252;-46
2021/05/23 06:21:40;;;;;;;2.70;0.90;;;16.50;57.40;;;;;;5013848;28;20252;-47
2021/05/23 06:24:06;;;;;;;1.20;0.90;;;16.60;57.20;;;;;;5012637;28;20317;-50
2021/05/23 06:26:32;;;;;;;2.20;0.67;;;16.70;57.40;;;;;;5013647;28;20186;-50
2021/05/23 06:28:57;;;;;;;1.10;1.00;;;16.70;57.40;;;;;;5011570;28;20441;-45
2021/05/23 06:31:23;;;;;;;1.97;1.00;;;16.70;57.70;;;;;;5013840;28;20721;-46
2021/05/23 06:33:49;;;;;;;2.10;0.93;;;16.80;57.40;;;;;;5011765;28;20194;-51
2021/05/23 06:36:14;;;;;;;1.17;1.07;;;16.90;56.80;;;;;;5013492;28;20559;-49
2021/05/23 06:38:40;;;;;;;1.63;1.10;;;16.80;57.30;;;;;;5008229;28;20685;-46
2021/05/23 06:41:06;;;;;;;1.37;1.00;;;16.80;57.60;;;;;;5013455;28;20244;-47
2021/05/23 06:43:32;;;;;;;3.40;0.80;;;16.90;57.80;;;;;;5012799;28;20308;-49
2021/05/23 06:45:57;;;;;;;0.90;0.73;;;16.80;56.80;;;;;;5013383;28;20204;-50
2021/05/23 06:48:23;;;;;;;1.90;0.70;;;16.80;57.50;;;;;;5012505;28;20190;-47
2021/05/23 06:50:50;;;;;;;1.23;1.03;;;17.00;57.80;;;;;;5013262;28;20205;-49
2021/05/23 06:53:16;;;;;;;1.20;1.00;;;16.90;58.30;;;;;;5012719;28;20428;-45
2021/05/23 06:55:42;;;;;;;0.93;0.70;;;17.10;58.00;;;;;;5013188;28;20417;-49
2021/05/23 06:58:07;;;;;;;1.30;1.00;;;17.20;57.60;;;;;;5012416;28;20190;-50
2021/05/23 07:00:33;;;;;;;1.60;0.87;;;17.20;56.50;;;;;;5010061;28;20197;-47
2021/05/23 07:02:59;;;;;;;1.43;0.80;;;17.20;56.60;;;;;;5012765;28;20646;-46
2021/05/23 07:05:24;;;;;;;1.20;0.87;;;17.20;55.80;;;;;;5013088;28;20190;-49
2021/05/23 07:07:50;;;;;;;1.97;0.80;;;17.20;56.70;;;;;;5012379;28;20205;-50
2021/05/23 07:10:16;;;;;;;1.43;0.80;;;17.20;55.70;;;;;;5012687;28;20198;-51
2021/05/23 07:12:41;;;;;;;2.00;1.03;;;17.30;55.80;;;;;;5012251;28;20224;-46
2021/05/23 07:15:08;;;;;;;1.17;0.90;;;17.20;55.70;;;;;;5012783;28;20440;-50
2021/05/23 07:17:34;;;;;;;2.80;0.90;;;17.10;55.40;;;;;;5012634;28;20202;-51
2021/05/23 07:20:00;;;;;;;0.80;0.60;;;17.00;56.20;;;;;;5012022;28;20429;-46
2021/05/23 07:22:25;;;;;;;1.00;0.90;;;17.10;55.70;;;;;;5012750;28;20205;-49
2021/05/23 07:24:51;;;;;;;1.30;0.90;;;17.10;56.10;;;;;;5012435;28;20189;-51
2021/05/23 07:27:17;;;;;;;0.73;0.63;;;17.10;55.00;;;;;;5011027;28;20281;-50
2021/05/23 07:29:43;;;;;;;3.33;0.90;;;17.10;54.00;;;;;;5011704;28;20673;-48
2021/05/23 07:32:08;;;;;;;1.10;0.93;;;16.90;54.30;;;;;;5012394;28;20425;-50
2021/05/23 07:34:34;;;;;;;2.77;0.80;;;16.80;54.50;;;;;;5011890;28;20208;-50
2021/05/23 07:36:59;;;;;;;2.60;0.97;;;17.00;55.40;;;;;;5011859;28;20194;-49
2021/05/23 07:39:25;;;;;;;1.90;0.60;;;17.30;54.80;;;;;;5007115;28;20296;-49
2021/05/23 07:41:51;;;;;;;1.53;0.70;;;17.50;53.60;;;;;;5012466;28;20198;-50
2021/05/23 07:44:17;;;;;;;2.87;0.80;;;17.60;53.50;;;;;;5011871;28;20670;-50
2021/05/23 07:46:44;;;;;;;2.53;0.80;;;17.50;51.20;;;;;;5012214;28;20248;-48
2021/05/23 07:49:10;;;;;;;1.73;0.67;;;17.50;50.80;;;;;;5011483;28;20433;-50
2021/05/23 07:51:36;;;;;;;3.23;0.80;;;17.30;51.10;;;;;;5010955;28;20488;-50
2021/05/23 07:54:02;;;;;;;2.00;0.90;;;17.20;52.30;;;;;;5011786;28;20244;-50
2021/05/23 07:56:28;;;;;;;1.37;1.03;;;17.20;51.70;;;;;;5012361;28;20221;-50
2021/05/23 07:58:54;;;;;;;1.83;0.90;;;17.20;52.90;;;;;;5011059;28;20417;-49
2021/05/23 08:01:20;;;;;;;2.37;1.03;;;17.30;54.50;;;;;;5012349;28;20205;-50
2021/05/23 08:03:45;;;;;;;1.60;1.00;;;17.00;54.20;;;;;;5011909;28;20928;-50
2021/05/23 08:06:13;;;;;;;2.83;1.03;;;16.40;57.00;;;;;;5012403;28;20673;-51
2021/05/23 08:08:38;;;;;;;1.90;0.67;;;15.80;57.70;;;;;;5010954;28;20204;-49
2021/05/23 08:11:04;;;;;;;1.53;0.70;;;15.40;56.90;;;;;;5012010;28;20421;-50
2021/05/23 08:13:30;;;;;;;1.13;0.80;;;15.50;56.10;;;;;;5011477;28;20568;-48
2021/05/23 08:15:57;;;;;;;1.43;0.73;;;15.80;56.00;;;;;;5012049;28;20653;-49
2021/05/23 08:18:28;;;;;;;1.20;0.80;;;15.90;55.90;;;;;;5009469;28;20201;-49
2021/05/23 08:20:59;;;;;;;0.70;0.70;;;15.90;56.30;;;;;;5011787;28;20798;-49
2021/05/23 08:23:25;;;;;;;3.00;0.90;;;15.90;55.90;;;;;;5011466;28;20492;-51
2021/05/23 08:25:51;;;;;;;0.77;0.73;;;15.90;56.00;;;;;;5011882;28;20799;-50
2021/05/23 08:28:17;;;;;;;5.20;1.07;;;16.00;56.20;;;;;;5010983;28;20429;-50
2021/05/23 08:30:43;;;;;;;3.33;0.90;;;16.00;56.60;;;;;;5011543;28;20439;-46
2021/05/23 08:33:10;;;;;;;0.90;0.70;;;16.10;57.10;;;;;;5011439;28;20505;-45
2021/05/23 08:35:36;;;;;;;1.53;0.93;;;16.30;57.40;;;;;;5011711;28;20193;-45
2021/05/23 08:38:01;;;;;;;2.63;1.13;;;16.60;58.10;;;;;;5010258;28;20476;-46
2021/05/23 08:40:27;;;;;;;4.03;1.00;;;16.80;59.70;;;;;;5007635;28;20263;-47
2021/05/23 08:42:53;;;;;;;1.97;1.00;;;17.00;60.70;;;;;;5011268;28;20304;-46
2021/05/23 08:45:20;;;;;;;1.10;0.90;;;17.20;60.60;;;;;;5010031;28;20232;-45
2021/05/23 08:47:46;;;;;;;2.50;1.30;;;17.40;62.90;;;;;;5012900;28;20433;-47
2021/05/23 08:50:14;;;;;;;1.27;1.00;;;17.70;62.30;;;;;;5015132;28;20598;-46
2021/05/23 08:52:40;;;;;;;1.53;0.63;;;17.90;59.20;;;;;;5015192;28;20190;-49
2021/05/23 08:55:06;;;;;;;0.70;0.70;;;17.80;56.10;;;;;;5015283;28;20425;-47
2021/05/23 08:57:34;;;;;;;0.80;0.80;;;17.90;58.40;;;;;;5015390;28;20671;-46
2021/05/23 08:59:59;;;;;;;1.43;0.70;;;18.10;59.00;;;;;;5014525;28;20205;-47
2021/05/23 09:02:26;;;;;;;3.03;0.80;;;18.30;57.30;;;;;;5015432;28;20440;-45
2021/05/23 09:04:53;;;;;;;1.93;0.60;;;18.50;55.00;;;;;;5014882;28;20208;-46
2021/05/23 09:07:19;;;;;;;2.50;1.00;;;18.70;55.50;;;;;;5014920;28;20471;-45
2021/05/23 09:09:46;;;;;;;1.27;1.07;;;18.80;55.70;;;;;;5014100;28;20948;-46
2021/05/23 09:12:14;;;;;;;1.50;0.80;;;19.10;54.40;;;;;;5013456;28;20572;-45
2021/05/23 09:14:46;;;;;;;0.80;0.80;;;19.20;52.80;;;;;;5014998;28;20439;-46
2021/05/23 09:17:26;;;;;;;1.43;1.20;;;19.20;53.70;;;;;;5015064;28;20428;-46
2021/05/23 09:19:53;;;;;;;2.80;1.13;;;19.20;51.70;;;;;;4994207;28;20421;-46
2021/05/23 09:22:23;;;;;;;1.13;0.83;;;19.10;53.60;;;;;;4995481;28;20429;-45
2021/05/23 09:24:54;;;;;;;1.67;0.80;;;19.20;53.60;;;;;;5001685;28;20829;-47
2021/05/23 09:27:26;;;;;;;2.77;0.83;;;19.00;52.40;;;;;;5014714;28;20940;-46
2021/05/23 09:30:18;;;;;;;2.17;0.83;;;18.70;52.10;;;;;;5013785;28;20827;-46
2021/05/23 09:32:46;;;;;;;3.73;1.00;;;18.80;53.20;;;;;;5014103;28;20437;-46
2021/05/23 09:35:14;;;;;;;2.70;0.90;;;19.00;52.50;;;;;;5014693;28;20444;-45
2021/05/23 09:37:41;;;;;;;1.20;0.80;;;18.80;51.10;;;;;;5012502;28;20866;-45
2021/05/23 09:40:21;;;;;;;2.37;1.10;;;18.80;50.60;;;;;;5010169;28;20448;-47
2021/05/23 09:42:48;;;;;;;1.17;0.80;;;18.50;49.70;;;;;;5014138;28;20491;-47
2021/05/23 09:45:15;;;;;;;5.37;1.00;;;18.40;51.50;;;;;;5014561;28;20481;-46
2021/05/23 09:47:58;;;;;;;1.87;0.90;;;18.50;51.70;;;;;;5013928;28;20448;-46
2021/05/23 09:50:41;;;;;;;1.43;1.00;;;18.60;51.00;;;;;;5014201;28;20437;-45
2021/05/23 09:53:36;;;;;;;1.57;1.00;;;18.60;52.60;;;;;;5013581;28;20528;-46
2021/05/23 09:56:14;;;;;;;2.30;0.90;;;18.60;50.90;;;;;;5009647;28;20678;-46
2021/05/23 09:58:47;;;;;;;2.23;1.40;;;18.60;51.60;;;;;;5012838;28;20948;-46
2021/05/23 10:01:32;;;;;;;1.87;1.30;;;18.70;52.80;;;;;;5014172;28;20437;-45
2021/05/23 10:03:58;;;;;;;2.47;1.10;;;18.80;52.00;;;;;;5011963;28;20503;-45
2021/05/23 10:06:33;;;;;;;1.43;0.90;;;18.70;50.60;;;;;;5014180;28;20643;-45
2021/05/23 10:08:59;;;;;;;2.70;1.13;;;18.30;51.00;;;;;;5013509;28;20439;-46
2021/05/23 10:11:26;;;;;;;2.00;0.77;;;17.60;53.30;;;;;;5014168;28;20425;-46
2021/05/23 10:13:51;;;;;;;0.70;0.70;;;16.80;52.60;;;;;;5013595;28;20221;-45
2021/05/23 10:16:18;;;;;;;1.13;0.90;;;16.50;53.70;;;;;;5014001;28;20425;-45
2021/05/23 10:18:45;;;;;;;1.90;1.00;;;16.40;55.50;;;;;;5012918;28;20222;-48
2021/05/23 10:21:12;;;;;;;2.00;0.97;;;16.70;56.60;;;;;;5013783;28;20640;-46
2021/05/23 10:23:46;;;;;;;1.17;1.00;;;16.90;56.70;;;;;;5013373;28;20487;-46
2021/05/23 10:26:13;;;;;;;1.30;0.80;;;17.00;56.50;;;;;;5013802;28;20436;-45
2021/05/23 10:28:41;;;;;;;0.90;0.67;;;17.20;57.10;;;;;;5012825;28;20443;-45
2021/05/23 10:31:07;;;;;;;3.30;1.00;;;17.50;58.20;;;;;;5011877;28;20429;-46
2021/05/23 10:33:33;;;;;;;1.33;1.23;;;17.90;58.90;;;;;;5013233;28;20426;-48
2021/05/23 10:35:58;;;;;;;4.33;1.13;;;18.20;59.00;;;;;;5013614;28;20488;-45
2021/05/23 10:38:26;;;;;;;2.33;1.23;;;18.50;59.20;;;;;;5009404;28;20243;-46
2021/05/23 10:41:00;;;;;;;1.30;1.20;;;18.80;59.80;;;;;;5012818;28;20198;-46
2021/05/23 10:43:31;;;;;;;2.20;0.97;;;19.00;61.20;;;;;;5012931;28;20976;-45
2021/05/23 10:46:14;;;;;;;0.90;0.90;;;19.30;63.10;;;;;;5013651;28;20439;-45
2021/05/23 10:48:55;;;;;;;2.20;0.90;;;19.60;61.60;;;;;;5012367;28;20443;-46
2021/05/23 10:51:22;;;;;;;1.87;0.80;;;19.90;58.40;;;;;;5013569;28;20445;-45
2021/05/23 10:53:48;;;;;;;0.90;0.90;;;20.20;57.50;;;;;;5012856;28;20422;-45
2021/05/23 10:56:32;;;;;;;1.03;0.90;;;20.50;57.40;;;;;;5013285;28;20432;-45
2021/05/23 10:59:01;;;;;;;2.93;0.97;;;20.70;55.80;;;;;;5011761;28;20428;-46
2021/05/23 11:01:37;;;;;;;1.20;1.10;;;21.00;55.10;;;;;;5013289;28;20451;-45
2021/05/23 11:04:22;;;;;;;1.67;1.00;;;21.10;52.50;;;;;;5012563;28;20534;-46
2021/05/23 11:06:49;;;;;;;2.00;0.67;;;21.30;52.30;;;;;;5013006;28;20445;-45
2021/05/23 11:09:21;;;;;;;2.20;1.00;;;21.40;51.80;;;;;;5011977;28;20784;-45
2021/05/23 11:11:47;;;;;;;2.23;0.80;;;21.40;50.60;;;;;;5011988;28;20433;-46
2021/05/23 11:14:23;;;;;;;2.60;1.07;;;21.20;50.90;;;;;;5012314;28;20888;-46
2021/05/23 11:16:57;;;;;;;1.17;0.90;;;21.30;51.40;;;;;;5013110;28;20432;-46
2021/05/23 11:19:25;;;;;;;3.00;2.70;;;21.30;51.30;;;;;;5011647;28;20437;-47
2021/05/23 11:21:53;;;;;;;3.37;2.87;;;21.30;52.90;;;;;;5012952;28;20912;-46
2021/05/23 11:24:24;;;;;;;2.93;2.33;;;21.20;51.60;;;;;;5010635;28;20582;-46
2021/05/23 11:26:50;;;;;;;2.50;1.60;;;21.20;50.50;;;;;;5012892;28;20933;-47
2021/05/23 11:29:18;;;;;;;1.40;1.30;;;21.10;50.70;;;;;;5011670;28;20460;-45
2021/05/23 11:31:45;;;;;;;6.87;3.47;;;21.10;51.70;;;;;;5012805;28;20197;-45
2021/05/23 11:34:14;;;;;;;3.70;2.23;;;21.00;52.00;;;;;;5012143;28;20441;-45
2021/05/23 11:36:40;;;;;;;1.23;1.10;;;20.90;52.20;;;;;;5012809;28;20433;-46
2021/05/23 11:39:14;;;;;;;2.60;1.20;;;20.50;52.40;;;;;;5011311;28;20464;-46
2021/05/23 11:41:45;;;;;;;3.07;0.90;;;20.40;50.00;;;;;;4999816;28;20603;-45
2021/05/23 11:44:13;;;;;;;1.50;1.03;;;20.00;47.60;;;;;;4999003;28;20484;-46
2021/05/23 11:46:40;;;;;;;1.87;1.53;;;19.90;50.70;;;;;;5012327;28;20479;-47
2021/05/23 11:49:06;;;;;;;1.87;1.20;;;19.90;51.70;;;;;;5011511;28;20507;-48
2021/05/23 11:51:34;;;;;;;2.67;1.23;;;19.90;52.00;;;;;;5010296;28;20512;-47
2021/05/23 11:54:04;;;;;;;3.00;1.37;;;19.90;53.00;;;;;;5011805;28;20197;-47
2021/05/23 11:56:34;;;;;;;2.40;1.40;;;20.00;55.20;;;;;;5012231;28;20423;-48
2021/05/23 11:59:05;;;;;;;2.13;1.13;;;20.00;55.40;;;;;;5011145;28;20520;-49
2021/05/23 12:01:35;;;;;;;1.00;0.90;;;19.90;55.60;;;;;;5012352;28;20479;-46
2021/05/23 12:04:09;;;;;;;1.90;0.93;;;19.90;54.40;;;;;;5011510;28;20672;-46
2021/05/23 12:06:39;;;;;;;1.73;1.10;;;20.00;54.80;;;;;;5011784;28;20459;-47
2021/05/23 12:09:11;;;;;;;1.00;0.90;;;20.20;58.70;;;;;;5011114;28;20449;-46
2021/05/23 12:11:37;;;;;;;2.23;1.50;;;20.50;60.00;;;;;;5012134;28;20447;-46
2021/05/23 12:14:04;;;;;;;2.40;1.10;;;20.80;58.90;;;;;;5011490;28;20484;-47
2021/05/23 12:16:29;;;;;;;2.50;0.80;;;21.00;57.50;;;;;;5010082;28;20498;-46
2021/05/23 12:18:56;;;;;;;2.23;0.87;;;21.10;54.20;;;;;;5011111;28;20818;-45
2021/05/23 12:21:29;;;;;;;1.70;0.70;;;21.40;51.20;;;;;;5011862;28;20288;-46
2021/05/23 12:23:56;;;;;;;1.10;1.10;;;21.50;50.40;;;;;;5011036;28;20485;-46
2021/05/23 12:26:23;;;;;;;1.13;0.93;;;21.50;49.10;;;;;;5011671;28;20437;-45
2021/05/23 12:28:51;;;;;;;0.80;0.67;;;21.40;50.20;;;;;;5010996;28;20532;-46
2021/05/23 12:31:19;;;;;;;0.90;0.90;;;21.00;44.40;;;;;;5011865;28;20435;-46
2021/05/23 12:33:49;;;;;;;0.63;0.60;;;21.30;45.20;;;;;;5011319;28;20776;-46
2021/05/23 12:36:15;;;;;;;0.60;0.60;;;21.60;46.20;;;;;;5011598;28;20437;-46
2021/05/23 12:38:41;;;;;;;2.03;1.00;;;21.80;42.70;;;;;;5006446;28;20845;-46
2021/05/23 12:41:12;;;;;;;1.10;0.70;;;22.10;46.10;;;;;;5011731;28;20192;-45
2021/05/23 12:43:40;;;;;;;1.47;1.20;;;21.90;40.20;;;;;;5009403;28;20488;-47
2021/05/23 12:46:11;;;;;;;1.70;0.87;;;21.80;42.10;;;;;;5011507;28;20432;-45
2021/05/23 12:48:39;;;;;;;4.83;0.90;;;21.90;43.80;;;;;;5010737;28;20813;-46
2021/05/23 12:51:19;;;;;;;0.80;0.80;;;21.70;43.30;;;;;;5011971;28;20429;-45